createdAt,value
2018-07-17T00:00:02.461Z,99.90
2018-07-17T00:02:30.745Z,99.90
2018-07-17T00:04:59.022Z,99.90
2018-07-17T00:07:27.229Z,99.90
2018-07-17T00:09:55.494Z,99.90
2018-07-17T00:12:23.757Z,99.90
2018-07-17T00:14:51.936Z,99.90
2018-07-17T00:17:20.214Z,99.90
2018-07-17T00:19:48.446Z,99.90
2018-07-17T00:22:17.606Z,99.90
2018-07-17T00:24:45.843Z,99.90
2018-07-17T00:27:14.095Z,99.90
2018-07-17T00:29:42.244Z,99.90
2018-07-17T00:32:10.540Z,99.90
2018-07-17T00:34:38.818Z,99.90
2018-07-17T00:37:07.050Z,99.90
2018-07-17T00:39:35.276Z,99.90
2018-07-17T00:42:03.489Z,99.90
2018-07-17T00:44:31.796Z,99.90
2018-07-17T00:47:00.304Z,99.90
2018-07-17T00:49:28.446Z,99.90
2018-07-17T00:51:56.678Z,99.90
2018-07-17T00:54:24.918Z,99.90
2018-07-17T00:56:53.130Z,99.90
2018-07-17T00:59:21.417Z,99.90
2018-07-17T01:01:55.060Z,99.90
2018-07-17T01:04:28.529Z,99.90
2018-07-17T01:07:02.028Z,99.90
2018-07-17T01:09:35.550Z,99.90
2018-07-17T01:12:09.329Z,99.90
2018-07-17T01:14:58.677Z,99.90
2018-07-17T01:17:27.450Z,99.90
2018-07-17T01:19:55.594Z,99.90
2018-07-17T01:22:24.013Z,99.90
2018-07-17T01:24:53.273Z,99.90
2018-07-17T01:27:21.402Z,99.90
2018-07-17T01:29:50.094Z,99.90
2018-07-17T01:32:18.291Z,99.90
2018-07-17T01:34:46.595Z,99.90
2018-07-17T01:37:14.885Z,99.90
2018-07-17T01:39:43.147Z,99.90
2018-07-17T01:42:11.293Z,99.90
2018-07-17T01:44:39.668Z,99.90
2018-07-17T01:47:07.839Z,99.90
2018-07-17T01:49:36.105Z,99.90
2018-07-17T01:52:04.291Z,99.90
2018-07-17T01:54:32.605Z,99.90
2018-07-17T01:57:00.781Z,99.90
2018-07-17T01:59:28.910Z,99.90
2018-07-17T02:01:57.098Z,99.90
2018-07-17T02:04:25.371Z,99.90
2018-07-17T02:06:53.625Z,99.90
2018-07-17T02:09:21.861Z,99.90
2018-07-17T02:11:50.303Z,99.90
2018-07-17T02:14:18.564Z,99.90
2018-07-17T02:16:46.813Z,99.90
2018-07-17T02:19:15.033Z,99.90
2018-07-17T02:21:43.324Z,99.90
2018-07-17T02:24:11.562Z,99.90
2018-07-17T02:26:39.898Z,99.90
2018-07-17T02:29:08.115Z,99.90
2018-07-17T02:31:36.271Z,99.90
2018-07-17T02:34:04.520Z,99.90
2018-07-17T02:36:32.996Z,99.90
2018-07-17T02:39:01.242Z,99.90
2018-07-17T02:41:29.417Z,99.90
2018-07-17T02:43:57.531Z,99.90
2018-07-17T02:46:25.773Z,99.90
2018-07-17T02:48:54.001Z,99.90
2018-07-17T02:51:22.268Z,99.90
2018-07-17T02:53:50.427Z,99.90
2018-07-17T02:56:19.819Z,99.90
2018-07-17T02:58:47.995Z,99.90
2018-07-17T03:01:16.273Z,99.90
2018-07-17T03:03:44.490Z,99.90
2018-07-17T03:06:12.695Z,99.90
2018-07-17T03:08:40.981Z,99.90
2018-07-17T03:11:09.191Z,99.90
2018-07-17T03:13:37.453Z,99.90
2018-07-17T03:16:05.751Z,99.90
2018-07-17T03:18:33.941Z,99.90
2018-07-17T03:21:02.186Z,99.90
2018-07-17T03:23:30.434Z,99.90
2018-07-17T03:25:58.711Z,99.90
2018-07-17T03:28:27.178Z,99.90
2018-07-17T03:30:56.475Z,99.90
2018-07-17T03:33:24.635Z,99.90
2018-07-17T03:35:52.809Z,99.90
2018-07-17T03:38:21.012Z,99.90
2018-07-17T03:40:49.234Z,99.90
2018-07-17T03:43:17.469Z,99.90
2018-07-17T03:45:45.637Z,99.90
2018-07-17T03:48:13.860Z,99.90
2018-07-17T03:50:42.078Z,99.90
2018-07-17T03:53:10.652Z,99.90
2018-07-17T03:55:38.770Z,99.90
2018-07-17T03:58:07.231Z,99.90
2018-07-17T04:00:36.190Z,99.90
2018-07-17T04:03:04.398Z,99.90
2018-07-17T04:05:32.582Z,99.90
2018-07-17T04:08:00.743Z,99.90
2018-07-17T04:10:29.056Z,99.90
2018-07-17T04:12:57.384Z,99.90
2018-07-17T04:15:25.572Z,99.90
2018-07-17T04:17:54.026Z,99.60
2018-07-17T04:20:22.212Z,97.80
2018-07-17T04:22:50.413Z,96.20
2018-07-17T04:25:18.664Z,94.40
2018-07-17T04:27:46.920Z,93.40
2018-07-17T04:30:15.133Z,90.50
2018-07-17T04:32:43.354Z,90.20
2018-07-17T04:35:11.638Z,88.70
2018-07-17T04:37:39.854Z,89.90
2018-07-17T04:40:08.078Z,88.50
2018-07-17T04:42:36.446Z,86.10
2018-07-17T04:45:04.822Z,84.10
2018-07-17T04:47:33.078Z,80.50
2018-07-17T04:50:01.340Z,77.70
2018-07-17T04:52:29.545Z,75.70
2018-07-17T04:54:57.663Z,74.10
2018-07-17T04:57:25.837Z,73.70
2018-07-17T04:59:54.081Z,72.70
2018-07-17T05:02:22.428Z,72.50
2018-07-17T05:04:50.620Z,71.00
2018-07-17T05:07:18.972Z,69.10
2018-07-17T05:09:48.392Z,68.30
2018-07-17T05:12:17.649Z,66.80
2018-07-17T05:14:46.359Z,65.90
2018-07-17T05:17:14.486Z,65.80
2018-07-17T05:19:42.868Z,66.20
2018-07-17T05:22:11.376Z,66.30
2018-07-17T05:24:39.525Z,65.50
2018-07-17T05:27:07.687Z,65.40
2018-07-17T05:29:35.919Z,65.70
2018-07-17T05:32:04.151Z,66.20
2018-07-17T05:34:32.399Z,66.70
2018-07-17T05:37:00.643Z,67.10
2018-07-17T05:39:28.951Z,67.70
2018-07-17T05:41:57.215Z,68.40
2018-07-17T05:44:25.396Z,66.90
2018-07-17T05:46:53.779Z,66.00
2018-07-17T05:49:21.967Z,64.90
2018-07-17T05:51:50.143Z,65.40
2018-07-17T05:54:18.580Z,65.10
2018-07-17T05:56:46.739Z,64.50
2018-07-17T05:59:15.394Z,64.40
2018-07-17T06:01:43.618Z,64.60
2018-07-17T06:04:11.791Z,64.30
2018-07-17T06:06:39.947Z,63.80
2018-07-17T06:09:09.177Z,63.30
2018-07-17T06:11:37.445Z,63.20
2018-07-17T06:14:05.882Z,62.60
2018-07-17T06:16:34.533Z,60.20
2018-07-17T06:19:03.339Z,58.80
2018-07-17T06:21:31.999Z,57.10
2018-07-17T06:24:00.282Z,55.00
2018-07-17T06:26:29.344Z,53.50
2018-07-17T06:28:57.622Z,51.90
2018-07-17T06:31:25.843Z,50.70
2018-07-17T06:33:54.082Z,49.50
2018-07-17T06:36:22.288Z,49.30
2018-07-17T06:38:50.599Z,49.10
2018-07-17T06:41:18.754Z,48.60
2018-07-17T06:43:46.992Z,47.90
2018-07-17T06:46:15.313Z,47.50
2018-07-17T06:48:43.558Z,46.50
2018-07-17T06:51:11.801Z,46.00
2018-07-17T06:53:39.992Z,44.90
2018-07-17T06:56:08.387Z,43.80
2018-07-17T06:58:36.736Z,42.60
2018-07-17T07:01:04.955Z,40.50
2018-07-17T07:03:33.239Z,39.50
2018-07-17T07:06:01.523Z,38.40
2018-07-17T07:08:29.832Z,35.90
2018-07-17T07:10:58.043Z,34.60
2018-07-17T07:13:26.372Z,34.90
2018-07-17T07:15:54.561Z,35.00
2018-07-17T07:18:22.724Z,34.50
2018-07-17T07:20:50.933Z,33.50
2018-07-17T07:23:19.200Z,33.20
2018-07-17T07:25:47.451Z,32.40
2018-07-17T07:28:15.698Z,31.70
2018-07-17T07:30:43.971Z,29.90
2018-07-17T07:33:12.797Z,29.80
2018-07-17T07:35:40.973Z,29.30
2018-07-17T07:38:09.187Z,30.00
2018-07-17T07:40:37.349Z,30.10
2018-07-17T07:43:06.056Z,30.10
2018-07-17T07:45:34.991Z,30.00
2018-07-17T07:48:03.868Z,30.00
2018-07-17T07:50:32.058Z,31.00
2018-07-17T07:53:00.173Z,31.90
2018-07-17T07:55:28.393Z,32.60
2018-07-17T07:57:56.534Z,33.00
2018-07-17T08:00:25.101Z,32.70
2018-07-17T08:02:53.629Z,33.50
2018-07-17T08:05:22.383Z,33.60
2018-07-17T08:07:50.629Z,34.10
2018-07-17T08:10:18.860Z,33.90
2018-07-17T08:12:47.028Z,34.70
2018-07-17T08:15:15.323Z,34.60
2018-07-17T08:17:43.902Z,33.50
2018-07-17T08:20:12.179Z,34.30
2018-07-17T08:22:40.396Z,33.20
2018-07-17T08:25:08.616Z,34.50
2018-07-17T08:27:36.974Z,33.60
2018-07-17T08:30:05.281Z,35.00
2018-07-17T08:32:33.519Z,34.50
2018-07-17T08:35:01.734Z,34.30
2018-07-17T08:37:29.963Z,35.10
2018-07-17T08:39:58.398Z,34.40
2018-07-17T08:42:26.632Z,34.10
2018-07-17T08:44:54.846Z,34.50
2018-07-17T08:47:23.088Z,33.80
2018-07-17T08:49:51.734Z,33.80
2018-07-17T08:52:20.152Z,33.90
2018-07-17T08:54:49.012Z,34.70
2018-07-17T08:57:17.223Z,34.40
2018-07-17T08:59:45.553Z,34.80
2018-07-17T09:02:13.733Z,35.70
2018-07-17T09:04:41.974Z,35.10
2018-07-17T09:07:10.243Z,35.70
2018-07-17T09:09:38.515Z,35.80
2018-07-17T09:12:06.802Z,36.70
2018-07-17T09:14:35.146Z,37.60
2018-07-17T09:17:03.409Z,37.30
2018-07-17T09:19:31.700Z,37.00
2018-07-17T09:22:18.627Z,37.40
2018-07-17T09:24:46.912Z,37.70
2018-07-17T09:27:15.090Z,38.50
2018-07-17T09:29:43.261Z,39.30
2018-07-17T09:32:11.493Z,38.50
2018-07-17T09:34:40.638Z,39.20
2018-07-17T09:37:09.097Z,38.90
2018-07-17T09:39:37.361Z,38.20
2018-07-17T09:42:05.950Z,39.40
2018-07-17T09:44:34.186Z,38.60
2018-07-17T09:47:02.932Z,39.70
2018-07-17T09:49:31.184Z,39.10
2018-07-17T09:51:59.424Z,40.10
2018-07-17T09:54:27.766Z,40.40
2018-07-17T09:56:55.922Z,41.60
2018-07-17T09:59:24.217Z,41.90
2018-07-17T10:01:58.264Z,41.80
2018-07-17T10:04:26.536Z,41.90
2018-07-17T10:06:54.711Z,42.60
2018-07-17T10:09:22.964Z,41.30
2018-07-17T10:11:51.236Z,43.30
2018-07-17T10:14:19.466Z,42.90
2018-07-17T10:16:47.696Z,42.60
2018-07-17T10:19:15.937Z,42.70
2018-07-17T10:21:44.209Z,40.90
2018-07-17T10:24:12.454Z,41.20
2018-07-17T10:26:40.781Z,41.20
2018-07-17T10:29:09.184Z,43.30
2018-07-17T10:31:37.407Z,42.30
2018-07-17T10:34:05.740Z,42.80
2018-07-17T10:36:34.042Z,42.30
2018-07-17T10:39:02.339Z,41.90
2018-07-17T10:41:30.543Z,41.60
2018-07-17T10:43:58.827Z,41.70
2018-07-17T10:46:27.112Z,41.80
2018-07-17T10:48:55.388Z,41.40
2018-07-17T10:51:23.588Z,42.20
2018-07-17T10:53:51.999Z,42.60
2018-07-17T10:58:55.414Z,43.00
2018-07-17T11:01:23.752Z,43.20
2018-07-17T11:03:51.976Z,43.90
2018-07-17T11:06:20.143Z,42.70
2018-07-17T11:08:48.343Z,43.30
2018-07-17T11:11:17.328Z,42.20
2018-07-17T11:13:45.557Z,42.60
2018-07-17T11:16:13.790Z,41.80
2018-07-17T11:18:42.619Z,42.60
2018-07-17T11:21:10.939Z,42.80
2018-07-17T11:23:39.158Z,42.40
2018-07-17T11:26:07.408Z,43.50
2018-07-17T11:28:35.669Z,43.20
2018-07-17T11:31:03.901Z,42.30
2018-07-17T11:33:32.097Z,42.70
2018-07-17T11:36:00.336Z,42.30
2018-07-17T11:38:28.798Z,42.10
2018-07-17T11:40:56.990Z,41.60
2018-07-17T11:43:25.206Z,41.30
2018-07-17T11:45:53.542Z,42.50
2018-07-17T11:48:28.299Z,42.20
2018-07-17T11:50:56.570Z,41.50
2018-07-17T11:53:24.896Z,41.10
2018-07-17T11:55:53.477Z,41.60
2018-07-17T11:58:21.783Z,41.40
2018-07-17T12:00:50.108Z,41.70
2018-07-17T12:03:18.334Z,41.10
2018-07-17T12:05:46.738Z,41.30
2018-07-17T12:08:15.040Z,40.00
2018-07-17T12:10:43.234Z,40.50
2018-07-17T12:13:11.406Z,40.40
2018-07-17T12:15:40.409Z,41.20
2018-07-17T12:18:08.577Z,41.20
2018-07-17T12:20:36.979Z,41.60
2018-07-17T12:23:05.202Z,41.30
2018-07-17T12:25:33.515Z,39.70
2018-07-17T12:28:01.760Z,39.60
2018-07-17T12:30:30.560Z,38.80
2018-07-17T12:32:59.640Z,39.50
2018-07-17T12:35:27.874Z,40.10
2018-07-17T12:37:56.149Z,38.50
2018-07-17T12:40:24.395Z,39.00
2018-07-17T12:42:52.661Z,38.00
2018-07-17T12:45:20.917Z,38.10
2018-07-17T12:47:49.125Z,37.60
2018-07-17T12:50:17.550Z,38.90
2018-07-17T12:52:45.713Z,38.20
2018-07-17T12:55:13.944Z,38.30
2018-07-17T12:57:42.224Z,38.40
2018-07-17T13:00:10.546Z,38.00
2018-07-17T13:02:38.819Z,39.20
2018-07-17T13:05:06.994Z,39.70
2018-07-17T13:07:35.365Z,38.80
2018-07-17T13:10:03.755Z,39.40
2018-07-17T13:12:32.014Z,38.80
2018-07-17T13:15:00.337Z,38.50
2018-07-17T13:17:28.730Z,39.00
2018-07-17T13:19:56.891Z,39.20
2018-07-17T13:22:25.143Z,39.60
2018-07-17T13:24:53.350Z,40.90
2018-07-17T13:27:21.524Z,39.00
2018-07-17T13:29:49.733Z,39.60
2018-07-17T13:32:17.935Z,39.60
2018-07-17T13:34:46.307Z,39.50
2018-07-17T13:37:14.498Z,40.40
2018-07-17T13:39:42.706Z,39.70
2018-07-17T13:42:10.867Z,39.90
2018-07-17T13:44:39.185Z,38.90
2018-07-17T13:47:07.393Z,38.80
2018-07-17T13:49:35.596Z,39.40
2018-07-17T13:52:03.763Z,38.00
2018-07-17T13:54:31.951Z,38.20
2018-07-17T13:57:00.254Z,37.90
2018-07-17T13:59:28.454Z,38.10
2018-07-17T14:01:56.732Z,37.30
2018-07-17T14:04:24.968Z,37.00
2018-07-17T14:06:53.357Z,36.00
2018-07-17T14:09:21.661Z,38.50
2018-07-17T14:11:49.878Z,37.20
2018-07-17T14:14:18.147Z,37.70
2018-07-17T14:16:46.400Z,38.00
2018-07-17T14:19:14.789Z,38.20
2018-07-17T14:21:43.118Z,38.10
2018-07-17T14:24:12.337Z,38.00
2018-07-17T14:26:40.594Z,37.30
2018-07-17T14:29:08.803Z,37.80
2018-07-17T14:31:37.111Z,37.40
2018-07-17T14:34:05.336Z,37.60
2018-07-17T14:36:33.592Z,36.60
2018-07-17T14:39:01.745Z,37.60
2018-07-17T14:41:29.996Z,36.90
2018-07-17T14:43:58.911Z,37.60
2018-07-17T14:46:27.273Z,38.60
2018-07-17T14:48:55.432Z,39.40
2018-07-17T14:51:24.173Z,40.10
2018-07-17T14:53:52.376Z,40.40
2018-07-17T14:56:21.252Z,40.20
2018-07-17T14:58:49.394Z,40.10
2018-07-17T15:01:17.672Z,40.00
2018-07-17T15:03:45.888Z,40.10
2018-07-17T15:06:14.116Z,39.90
2018-07-17T15:08:42.305Z,40.20
2018-07-17T15:11:10.550Z,40.10
2018-07-17T15:13:41.835Z,40.20
2018-07-17T15:16:10.076Z,40.40
2018-07-17T15:18:38.366Z,40.30
2018-07-17T15:21:06.565Z,40.80
2018-07-17T15:23:34.724Z,39.80
2018-07-17T15:26:03.007Z,39.00
2018-07-17T15:28:31.178Z,39.60
2018-07-17T15:30:59.419Z,40.30
2018-07-17T15:33:27.728Z,40.40
2018-07-17T15:35:55.985Z,40.00
2018-07-17T15:38:24.350Z,40.60
2018-07-17T15:40:52.502Z,40.60
2018-07-17T15:43:20.679Z,41.30
2018-07-17T15:45:49.015Z,41.30
2018-07-17T15:48:17.288Z,41.60
2018-07-17T15:50:45.446Z,42.30
2018-07-17T15:53:13.640Z,43.00
2018-07-17T15:55:41.960Z,43.30
2018-07-17T15:58:10.282Z,43.70
2018-07-17T16:00:38.545Z,43.90
2018-07-17T16:03:06.810Z,44.30
2018-07-17T16:05:35.472Z,44.40
2018-07-17T16:08:03.672Z,44.40
2018-07-17T16:10:31.906Z,44.60
2018-07-17T16:13:00.101Z,44.70
2018-07-17T16:15:28.290Z,44.40
2018-07-17T16:17:56.575Z,44.60
2018-07-17T16:20:24.850Z,44.60
2018-07-17T16:22:53.065Z,44.70
2018-07-17T16:25:21.302Z,45.30
2018-07-17T16:27:49.484Z,45.40
2018-07-17T16:30:17.821Z,45.30
2018-07-17T16:32:46.561Z,45.40
2018-07-17T16:35:14.896Z,45.30
2018-07-17T16:37:43.133Z,45.10
2018-07-17T16:40:19.866Z,45.80
2018-07-17T16:42:48.074Z,47.40
2018-07-17T16:45:16.847Z,48.90
2018-07-17T16:47:45.021Z,50.30
2018-07-17T16:50:13.193Z,51.70
2018-07-17T16:52:41.383Z,52.40
2018-07-17T16:55:09.598Z,54.30
2018-07-17T16:57:37.801Z,57.10
2018-07-17T17:00:06.382Z,59.90
2018-07-17T17:02:34.527Z,61.70
2018-07-17T17:05:02.811Z,64.00
2018-07-17T17:07:30.983Z,65.00
2018-07-17T17:09:59.169Z,64.30
2018-07-17T17:12:27.463Z,63.00
2018-07-17T17:14:55.683Z,62.30
2018-07-17T17:17:23.907Z,61.80
2018-07-17T17:19:52.139Z,61.20
2018-07-17T17:22:20.347Z,61.20
2018-07-17T17:24:48.844Z,60.20
2018-07-17T17:27:17.114Z,61.60
2018-07-17T17:29:45.484Z,62.40
2018-07-17T17:32:13.711Z,62.10
2018-07-17T17:34:42.657Z,62.20
2018-07-17T17:37:10.838Z,63.70
2018-07-17T17:39:39.017Z,64.10
2018-07-17T17:42:07.253Z,64.50
2018-07-17T17:44:35.498Z,65.70
2018-07-17T17:47:03.723Z,66.90
2018-07-17T17:49:32.012Z,67.10
2018-07-17T17:52:00.269Z,65.70
2018-07-17T17:54:28.473Z,64.90
2018-07-17T17:56:56.771Z,62.80
2018-07-17T17:59:25.024Z,61.60
2018-07-17T18:01:53.223Z,61.10
2018-07-17T18:04:21.406Z,62.20
2018-07-17T18:06:49.611Z,61.70
2018-07-17T18:09:17.826Z,62.80
2018-07-17T18:11:46.135Z,64.20
2018-07-17T18:14:14.381Z,65.00
2018-07-17T18:16:42.539Z,66.10
2018-07-17T18:19:10.782Z,68.00
2018-07-17T18:21:39.041Z,70.40
2018-07-17T18:24:07.323Z,72.10
2018-07-17T18:26:36.295Z,73.70
2018-07-17T18:29:05.572Z,75.10
2018-07-17T18:31:33.907Z,75.30
2018-07-17T18:34:02.183Z,76.40
2018-07-17T18:36:30.817Z,78.10
2018-07-17T18:38:59.009Z,79.40
2018-07-17T18:41:27.397Z,79.50
2018-07-17T18:43:55.554Z,80.10
2018-07-17T18:46:23.753Z,80.80
2018-07-17T18:48:51.945Z,82.00
2018-07-17T18:51:20.145Z,82.00
2018-07-17T18:53:49.246Z,83.20
2018-07-17T18:56:17.464Z,84.60
2018-07-17T18:58:45.715Z,85.40
2018-07-17T19:01:13.898Z,85.90
2018-07-17T19:03:42.055Z,84.60
2018-07-17T19:06:10.473Z,84.30
2018-07-17T19:08:38.984Z,86.50
2018-07-17T19:11:07.285Z,88.20
2018-07-17T19:13:35.463Z,89.00
2018-07-17T19:16:03.728Z,89.10
2018-07-17T19:18:32.116Z,89.60
2018-07-17T19:21:00.685Z,90.30
2018-07-17T19:23:29.518Z,90.50
2018-07-17T19:25:57.728Z,90.70
2018-07-17T19:28:25.945Z,91.20
2018-07-17T19:30:54.085Z,90.50
2018-07-17T19:33:22.348Z,90.80
2018-07-17T19:35:50.614Z,91.40
2018-07-17T19:38:19.014Z,91.60
2018-07-17T19:40:54.592Z,91.60
2018-07-17T19:43:22.948Z,91.10
2018-07-17T19:45:51.378Z,90.70
2018-07-17T19:48:19.747Z,91.10
2018-07-17T19:50:47.975Z,91.30
2018-07-17T19:53:16.219Z,91.90
2018-07-17T19:55:45.277Z,92.40
2018-07-17T19:58:13.555Z,92.50
2018-07-17T20:00:41.847Z,92.90
2018-07-17T20:03:10.127Z,92.70
2018-07-17T20:05:38.340Z,92.90
2018-07-17T20:08:06.889Z,93.20
2018-07-17T20:10:35.205Z,92.90
2018-07-17T20:13:03.436Z,93.00
2018-07-17T20:15:31.654Z,93.30
2018-07-17T20:17:59.895Z,94.20
2018-07-17T20:20:28.143Z,94.70
2018-07-17T20:22:56.368Z,95.90
2018-07-17T20:25:24.656Z,96.40
2018-07-17T20:27:53.109Z,97.50
2018-07-17T20:30:21.338Z,97.80
2018-07-17T20:32:49.691Z,98.70
2018-07-17T20:35:17.880Z,99.60
2018-07-17T20:37:46.102Z,99.90
2018-07-17T20:40:14.386Z,99.90
2018-07-17T20:42:42.629Z,99.90
2018-07-17T20:45:10.825Z,99.90
2018-07-17T20:47:39.083Z,99.90
2018-07-17T20:50:07.320Z,99.90
2018-07-17T20:52:37.185Z,99.90
2018-07-17T20:55:05.495Z,99.90
2018-07-17T20:57:33.826Z,99.90
2018-07-17T21:00:02.030Z,99.90
2018-07-17T21:02:30.218Z,99.90
2018-07-17T21:04:58.420Z,99.90
2018-07-17T21:07:26.588Z,99.90
2018-07-17T21:09:54.790Z,99.90
2018-07-17T21:12:23.058Z,99.90
2018-07-17T21:14:51.262Z,99.90
2018-07-17T21:17:19.582Z,99.90
2018-07-17T21:19:47.779Z,99.90
2018-07-17T21:22:15.980Z,99.90
2018-07-17T21:24:44.254Z,99.90
2018-07-17T21:27:12.469Z,99.90
2018-07-17T21:29:40.673Z,99.90
2018-07-17T21:32:08.894Z,99.90
2018-07-17T21:34:37.179Z,99.90
2018-07-17T21:37:05.427Z,99.90
2018-07-17T21:39:33.602Z,99.90
2018-07-17T21:42:01.846Z,99.90
2018-07-17T21:44:30.075Z,99.90
2018-07-17T21:46:58.300Z,99.90
2018-07-17T21:49:26.553Z,99.90
2018-07-17T21:51:54.823Z,99.90
2018-07-17T21:54:23.108Z,99.90
2018-07-17T21:56:51.334Z,99.90
2018-07-17T21:59:19.536Z,99.90
2018-07-17T22:01:47.991Z,99.90
2018-07-17T22:04:16.221Z,99.90
2018-07-17T22:06:44.488Z,99.90
2018-07-17T22:09:13.743Z,99.90
2018-07-17T22:11:42.996Z,99.90
2018-07-17T22:14:11.553Z,99.90
2018-07-17T22:16:39.826Z,99.90
2018-07-17T22:19:08.113Z,99.90
2018-07-17T22:21:36.317Z,99.90
2018-07-17T22:24:04.565Z,99.90
2018-07-17T22:26:32.722Z,99.90
2018-07-17T22:29:01.803Z,99.90
2018-07-17T22:31:29.979Z,99.90
2018-07-17T22:34:05.064Z,99.90
2018-07-17T22:36:33.313Z,99.90
2018-07-17T22:39:01.482Z,99.90
2018-07-17T22:41:30.050Z,99.90
2018-07-17T22:43:58.426Z,99.90
2018-07-17T22:46:26.867Z,99.90
2018-07-17T22:48:55.029Z,99.90
2018-07-17T22:51:23.329Z,99.90
2018-07-17T22:53:51.591Z,99.90
2018-07-17T22:56:19.897Z,99.90
2018-07-17T22:58:49.209Z,99.90
2018-07-17T23:01:17.534Z,99.90
2018-07-17T23:03:45.716Z,99.90
2018-07-17T23:06:14.133Z,99.90
2018-07-17T23:08:42.441Z,99.90
2018-07-17T23:11:10.653Z,99.90
2018-07-17T23:13:38.827Z,99.90
2018-07-17T23:16:07.073Z,99.90
2018-07-17T23:18:35.315Z,99.90
2018-07-17T23:21:03.479Z,99.90
2018-07-17T23:23:31.737Z,99.90
2018-07-17T23:25:59.909Z,99.90
2018-07-17T23:28:28.127Z,99.90
2018-07-17T23:30:56.411Z,99.90
2018-07-17T23:33:24.638Z,99.90
2018-07-17T23:35:52.790Z,99.90
2018-07-17T23:38:20.995Z,99.90
2018-07-17T23:40:49.193Z,99.90
2018-07-17T23:43:17.465Z,99.90
2018-07-17T23:45:45.674Z,99.90
2018-07-17T23:48:13.991Z,99.90
2018-07-17T23:50:42.244Z,99.90
2018-07-17T23:53:10.433Z,99.90
2018-07-17T23:55:38.693Z,99.90
2018-07-17T23:58:06.916Z,99.90
